createdAt,value
2022-08-17T00:00:52.190Z,87.77
2022-08-17T00:03:28.207Z,89.07
2022-08-17T00:06:11.962Z,84.80
2022-08-17T00:08:50.766Z,87.23
2022-08-17T00:11:29.114Z,86.50
2022-08-17T00:14:16.558Z,89.20
2022-08-17T00:16:57.030Z,86.57
2022-08-17T00:19:29.294Z,86.50
2022-08-17T00:22:34.465Z,85.60
2022-08-17T00:24:54.460Z,87.97
2022-08-17T00:27:26.072Z,87.73
2022-08-17T00:29:57.613Z,87.20
2022-08-17T00:33:13.763Z,84.63
2022-08-17T00:35:23.729Z,83.03
2022-08-17T00:37:55.450Z,86.80
2022-08-17T00:40:27.145Z,89.13
2022-08-17T00:43:23.820Z,85.07
2022-08-17T00:45:56.715Z,90.50
2022-08-17T00:48:31.751Z,86.33
2022-08-17T00:51:23.174Z,88.53
2022-08-17T00:53:59.838Z,86.47
2022-08-17T00:56:39.402Z,85.17
2022-08-17T00:59:15.981Z,83.80
2022-08-17T01:01:50.014Z,85.80
2022-08-17T01:04:22.551Z,85.38
2022-08-17T01:06:55.090Z,86.63
2022-08-17T01:09:27.259Z,81.83
2022-08-17T01:11:59.111Z,85.97
2022-08-17T01:14:30.797Z,86.53
2022-08-17T01:17:02.548Z,84.03
2022-08-17T01:19:39.085Z,85.23
2022-08-17T01:22:20.045Z,87.83
2022-08-17T01:24:59.818Z,85.70
2022-08-17T01:27:31.737Z,83.13
2022-08-17T01:30:58.119Z,88.07
2022-08-17T01:33:00.707Z,85.40
2022-08-17T01:35:32.381Z,83.17
2022-08-17T01:38:04.591Z,82.63
2022-08-17T01:40:46.467Z,84.07
2022-08-17T01:43:24.091Z,81.60
2022-08-17T01:46:03.364Z,85.50
2022-08-17T01:48:38.341Z,85.07
2022-08-17T01:51:09.997Z,83.97
2022-08-17T01:53:47.297Z,79.57
2022-08-17T01:56:22.530Z,82.30
2022-08-17T01:58:54.517Z,81.23
2022-08-17T02:01:29.540Z,85.70
2022-08-17T02:04:01.853Z,84.00
2022-08-17T02:06:52.973Z,80.17
2022-08-17T02:09:29.556Z,79.87
2022-08-17T02:12:05.767Z,80.83
2022-08-17T02:14:55.591Z,79.90
2022-08-17T02:17:27.231Z,78.73
2022-08-17T02:19:58.847Z,80.50
2022-08-17T02:22:31.054Z,85.53
2022-08-17T02:25:04.190Z,81.13
2022-08-17T02:27:38.738Z,81.10
2022-08-17T02:30:59.891Z,78.93
2022-08-17T02:33:06.491Z,81.72
2022-08-17T02:35:42.887Z,85.77
2022-08-17T02:38:14.994Z,81.50
2022-08-17T02:40:47.559Z,79.93
2022-08-17T02:43:19.155Z,84.87
2022-08-17T02:45:51.440Z,79.03
2022-08-17T02:48:30.985Z,80.47
2022-08-17T02:51:03.513Z,81.77
2022-08-17T02:53:36.263Z,80.33
2022-08-17T02:56:07.987Z,84.00
2022-08-17T02:58:39.573Z,85.00
2022-08-17T03:01:11.207Z,80.63
2022-08-17T03:03:42.887Z,84.17
2022-08-17T03:06:14.521Z,80.60
2022-08-17T03:08:46.168Z,80.33
2022-08-17T03:11:17.766Z,84.47
2022-08-17T03:13:50.060Z,84.10
2022-08-17T03:16:21.917Z,83.73
2022-08-17T03:18:54.779Z,82.93
2022-08-17T03:21:26.444Z,80.27
2022-08-17T03:23:58.195Z,83.70
2022-08-17T03:26:29.977Z,80.10
2022-08-17T03:29:01.609Z,83.60
2022-08-17T03:31:33.204Z,86.23
2022-08-17T03:34:08.770Z,82.97
2022-08-17T03:36:40.403Z,85.10
2022-08-17T03:39:12.075Z,82.70
2022-08-17T03:41:43.839Z,81.53
2022-08-17T03:44:15.458Z,87.23
2022-08-17T03:47:05.508Z,87.27
2022-08-17T03:49:55.700Z,83.37
2022-08-17T03:52:51.714Z,83.93
2022-08-17T03:55:42.218Z,86.33
2022-08-17T03:58:13.915Z,86.23
2022-08-17T04:00:45.705Z,89.83
2022-08-17T04:03:17.965Z,88.07
2022-08-17T04:05:49.576Z,90.07
2022-08-17T04:08:21.209Z,83.10
2022-08-17T04:10:52.827Z,85.30
2022-08-17T04:13:27.806Z,87.80
2022-08-17T04:16:00.000Z,88.73
2022-08-17T04:18:31.676Z,83.77
2022-08-17T04:21:05.346Z,84.15
2022-08-17T04:23:38.163Z,86.47
2022-08-17T04:26:09.817Z,82.90
2022-08-17T04:29:01.518Z,84.33
2022-08-17T04:31:33.978Z,81.10
2022-08-17T04:34:05.621Z,81.00
2022-08-17T04:36:37.367Z,84.20
2022-08-17T04:39:08.987Z,83.43
2022-08-17T04:41:59.071Z,84.90
2022-08-17T04:44:37.846Z,84.57
2022-08-17T04:47:12.981Z,84.57
2022-08-17T04:49:44.938Z,82.93
2022-08-17T04:52:32.284Z,86.67
2022-08-17T04:55:08.580Z,85.23
2022-08-17T04:57:44.584Z,82.53
2022-08-17T05:00:16.949Z,90.07
2022-08-17T05:02:50.666Z,86.10
2022-08-17T05:05:36.434Z,86.88
2022-08-17T05:08:08.041Z,90.13
2022-08-17T05:10:39.638Z,89.13
2022-08-17T05:13:18.821Z,88.57
2022-08-17T05:15:55.104Z,90.07
2022-08-17T05:18:28.951Z,4.95
2022-08-17T05:21:00.682Z,162.48
2022-08-17T05:23:41.747Z,5.35
2022-08-17T05:26:25.573Z,50.75
2022-08-17T05:29:00.382Z,4.85
2022-08-17T05:31:37.065Z,9.40
2022-08-17T05:34:08.747Z,4.28
2022-08-17T05:36:42.908Z,4.50
2022-08-17T05:39:17.318Z,4.63
2022-08-17T05:41:49.241Z,5.32
2022-08-17T05:44:20.906Z,4.10
2022-08-17T05:46:59.153Z,260.20
2022-08-17T05:49:32.839Z,99.10
2022-08-17T05:52:30.776Z,103.88
2022-08-17T05:55:26.981Z,106.60
2022-08-17T05:58:07.577Z,102.87
2022-08-17T06:00:56.043Z,103.80
2022-08-17T06:03:56.971Z,103.50
2022-08-17T06:06:48.592Z,95.93
2022-08-17T06:09:33.939Z,98.00
2022-08-17T06:12:19.767Z,101.17
2022-08-17T06:15:13.881Z,102.07
2022-08-17T06:17:53.564Z,103.47
2022-08-17T06:20:28.858Z,96.23
2022-08-17T06:23:09.997Z,94.47
2022-08-17T06:25:49.727Z,97.13
2022-08-17T06:28:38.296Z,97.40
2022-08-17T06:31:21.366Z,102.50
2022-08-17T06:33:53.325Z,101.93
2022-08-17T06:36:35.011Z,104.60
2022-08-17T06:39:20.209Z,107.37
2022-08-17T06:42:00.861Z,113.70
2022-08-17T06:44:49.812Z,108.00
2022-08-17T06:47:34.018Z,114.73
2022-08-17T06:50:18.965Z,111.20
2022-08-17T06:52:56.606Z,113.67
2022-08-17T06:55:38.158Z,115.53
2022-08-17T06:58:16.336Z,110.17
2022-08-17T07:00:56.621Z,114.80
2022-08-17T07:03:45.333Z,120.67
2022-08-17T07:06:22.766Z,120.63
2022-08-17T07:09:23.602Z,121.10
2022-08-17T07:12:22.170Z,125.57
2022-08-17T07:15:05.786Z,125.30
2022-08-17T07:17:47.484Z,125.27
2022-08-17T07:20:22.554Z,128.80
2022-08-17T07:23:19.750Z,124.97
2022-08-17T07:25:51.392Z,125.97
2022-08-17T07:28:23.782Z,122.87
2022-08-17T07:30:55.425Z,127.80
2022-08-17T07:33:30.242Z,127.93
2022-08-17T07:36:02.298Z,125.63
2022-08-17T07:38:35.589Z,125.70
2022-08-17T07:41:10.658Z,127.82
2022-08-17T07:43:43.934Z,129.57
2022-08-17T07:46:47.789Z,125.00
2022-08-17T07:49:31.720Z,124.78
2022-08-17T07:52:47.636Z,128.27
2022-08-17T07:55:34.806Z,130.65
2022-08-17T07:58:06.450Z,130.75
2022-08-17T08:00:38.232Z,124.85
2022-08-17T08:03:27.300Z,130.18
2022-08-17T08:06:03.005Z,130.52
2022-08-17T08:08:43.614Z,123.45
2022-08-17T08:11:29.557Z,129.15
2022-08-17T08:14:28.321Z,128.68
2022-08-17T08:17:09.353Z,126.70
2022-08-17T08:19:41.126Z,121.28
2022-08-17T08:22:33.610Z,123.50
2022-08-17T08:25:19.839Z,123.80
2022-08-17T08:28:27.317Z,123.78
2022-08-17T08:31:42.513Z,116.18
2022-08-17T08:34:47.346Z,118.35
2022-08-17T08:37:34.746Z,120.10
2022-08-17T08:40:47.166Z,119.78
2022-08-17T08:43:43.662Z,123.13
2022-08-17T08:46:27.243Z,115.82
2022-08-17T08:49:11.917Z,118.18
2022-08-17T08:52:00.291Z,116.55
2022-08-17T08:54:50.276Z,121.68
2022-08-17T08:57:34.275Z,121.95
2022-08-17T09:00:15.623Z,127.07
2022-08-17T09:03:19.185Z,121.32
2022-08-17T09:06:33.527Z,121.27
2022-08-17T09:09:45.594Z,122.82
2022-08-17T09:12:48.661Z,127.32
2022-08-17T09:15:26.656Z,120.57
2022-08-17T09:19:01.184Z,122.60
2022-08-17T09:21:01.010Z,117.57
2022-08-17T09:23:59.859Z,121.15
2022-08-17T09:27:08.954Z,121.60
2022-08-17T09:29:47.974Z,120.95
2022-08-17T09:32:32.193Z,121.07
2022-08-17T09:35:17.652Z,122.55
2022-08-17T09:38:17.227Z,123.95
2022-08-17T09:40:57.145Z,124.53
2022-08-17T09:43:59.854Z,123.47
2022-08-17T09:46:41.226Z,125.82
2022-08-17T09:49:38.267Z,126.10
2022-08-17T09:52:18.613Z,125.93
2022-08-17T09:54:52.406Z,122.63
2022-08-17T09:57:53.694Z,127.68
2022-08-17T10:00:31.981Z,123.53
2022-08-17T10:03:50.870Z,120.10
2022-08-17T10:06:27.172Z,118.20
2022-08-17T10:09:13.834Z,124.15
2022-08-17T10:12:17.135Z,123.18
2022-08-17T10:15:08.070Z,124.40
2022-08-17T10:18:22.456Z,121.30
2022-08-17T10:21:25.146Z,122.50
2022-08-17T10:24:40.647Z,125.57
2022-08-17T10:27:54.475Z,121.07
2022-08-17T10:30:31.533Z,121.72
2022-08-17T10:33:06.947Z,123.32
2022-08-17T10:35:44.897Z,121.25
2022-08-17T10:38:46.779Z,125.82
2022-08-17T10:41:27.412Z,121.25
2022-08-17T10:44:37.387Z,119.55
2022-08-17T10:47:15.429Z,119.47
2022-08-17T10:49:55.940Z,117.88
2022-08-17T10:52:27.550Z,120.65
2022-08-17T10:55:08.941Z,117.15
2022-08-17T10:57:44.785Z,117.65
2022-08-17T11:00:23.011Z,118.55
2022-08-17T11:02:58.744Z,118.70
2022-08-17T11:05:50.368Z,114.20
2022-08-17T11:08:37.646Z,123.47
2022-08-17T11:11:47.555Z,118.55
2022-08-17T11:14:41.278Z,117.75
2022-08-17T11:17:35.246Z,116.45
2022-08-17T11:20:34.402Z,118.38
2022-08-17T11:23:14.915Z,115.40
2022-08-17T11:25:55.411Z,118.97
2022-08-17T11:28:35.846Z,122.22
2022-08-17T11:31:38.456Z,113.97
2022-08-17T11:34:34.966Z,117.88
2022-08-17T11:37:44.159Z,118.20
2022-08-17T11:40:41.341Z,116.15
2022-08-17T11:43:28.037Z,116.78
2022-08-17T11:46:59.743Z,120.93
2022-08-17T11:50:08.685Z,116.50
2022-08-17T11:52:47.453Z,117.10
2022-08-17T11:55:40.718Z,118.72
2022-08-17T11:58:29.823Z,115.03
2022-08-17T12:01:03.070Z,119.97
2022-08-17T12:03:37.737Z,115.88
2022-08-17T12:06:17.918Z,117.15
2022-08-17T12:09:14.419Z,115.90
2022-08-17T12:12:01.542Z,116.40
2022-08-17T12:15:10.239Z,114.78
2022-08-17T12:17:55.205Z,114.95
2022-08-17T12:20:34.846Z,118.13
2022-08-17T12:23:39.494Z,115.70
2022-08-17T12:26:20.980Z,120.05
2022-08-17T12:29:02.438Z,117.70
2022-08-17T12:31:44.209Z,118.78
2022-08-17T12:34:25.603Z,119.15
2022-08-17T12:37:02.962Z,118.32
2022-08-17T12:39:38.640Z,116.88
2022-08-17T12:42:26.446Z,115.15
2022-08-17T12:44:59.398Z,129.38
2022-08-17T12:47:35.090Z,135.20
2022-08-17T12:50:29.282Z,129.15
2022-08-17T12:53:04.864Z,136.18
2022-08-17T12:55:38.811Z,131.23
2022-08-17T12:58:14.403Z,127.93
2022-08-17T13:00:55.370Z,130.85
2022-08-17T13:03:36.335Z,115.43
2022-08-17T13:06:12.492Z,113.40
2022-08-17T13:08:47.993Z,128.57
2022-08-17T13:11:24.575Z,117.78
2022-08-17T13:13:56.645Z,116.32
2022-08-17T13:16:31.699Z,114.63
2022-08-17T13:19:09.749Z,113.75
2022-08-17T13:21:48.085Z,115.45
2022-08-17T13:24:29.454Z,113.47
2022-08-17T13:27:15.387Z,115.80
2022-08-17T13:29:51.612Z,109.28
2022-08-17T13:32:33.418Z,112.18
2022-08-17T13:35:39.924Z,112.65
2022-08-17T13:38:39.490Z,114.45
2022-08-17T13:41:36.152Z,108.80
2022-08-17T13:44:30.587Z,113.68
2022-08-17T13:47:04.371Z,115.55
2022-08-17T13:52:34.543Z,118.10
2022-08-17T13:55:18.823Z,110.13
2022-08-17T13:58:03.906Z,115.03
2022-08-17T14:00:40.331Z,116.15
2022-08-17T14:03:12.107Z,113.93
2022-08-17T14:05:45.922Z,114.72
2022-08-17T14:10:58.645Z,116.38
2022-08-17T14:13:30.211Z,113.07
2022-08-17T14:16:02.026Z,114.15
2022-08-17T14:18:55.430Z,117.65
2022-08-17T14:21:28.272Z,114.50
2022-08-17T14:24:00.272Z,117.88
2022-08-17T14:26:34.681Z,119.95
2022-08-17T14:29:15.000Z,117.57
2022-08-17T14:31:53.367Z,114.45
2022-08-17T14:34:26.375Z,116.53
2022-08-17T14:37:00.986Z,116.55
2022-08-17T14:39:39.517Z,119.45
2022-08-17T14:42:15.511Z,115.45
2022-08-17T14:44:47.575Z,117.80
2022-08-17T14:47:19.278Z,115.32
2022-08-17T14:49:51.139Z,113.75
2022-08-17T14:52:22.727Z,111.88
2022-08-17T14:54:55.111Z,117.50
2022-08-17T14:57:34.279Z,117.30
2022-08-17T15:00:08.086Z,110.97
2022-08-17T15:02:46.027Z,112.18
2022-08-17T15:05:17.878Z,112.97
2022-08-17T15:07:49.745Z,110.68
2022-08-17T15:10:22.044Z,114.43
2022-08-17T15:12:53.906Z,115.45
2022-08-17T15:15:26.708Z,112.70
2022-08-17T15:17:59.948Z,113.30
2022-08-17T15:20:33.326Z,115.47
2022-08-17T15:23:06.942Z,116.40
2022-08-17T15:25:43.851Z,114.75
2022-08-17T15:28:17.202Z,114.75
2022-08-17T15:30:53.239Z,115.70
2022-08-17T15:33:29.480Z,113.53
2022-08-17T15:36:04.700Z,113.85
2022-08-17T15:38:39.583Z,114.97
2022-08-17T15:41:15.244Z,113.90
2022-08-17T15:43:50.197Z,117.13
2022-08-17T15:46:24.393Z,112.78
2022-08-17T15:49:02.751Z,115.75
2022-08-17T15:51:35.589Z,112.70
2022-08-17T15:54:18.952Z,114.97
2022-08-17T15:56:54.919Z,115.70
2022-08-17T15:59:27.065Z,110.03
2022-08-17T16:03:13.662Z,113.90
2022-08-17T16:04:52.398Z,113.32
2022-08-17T16:07:26.846Z,111.87
2022-08-17T16:09:58.702Z,113.82
2022-08-17T16:12:30.369Z,113.13
2022-08-17T16:15:04.151Z,113.18
2022-08-17T16:17:40.192Z,115.63
2022-08-17T16:20:20.048Z,111.07
2022-08-17T16:22:53.221Z,108.93
2022-08-17T16:25:52.103Z,115.60
2022-08-17T16:28:27.506Z,116.73
2022-08-17T16:31:08.128Z,111.57
2022-08-17T16:33:41.273Z,113.72
2022-08-17T16:36:12.872Z,110.40
2022-08-17T16:38:44.850Z,111.37
2022-08-17T16:41:36.782Z,112.30
2022-08-17T16:44:08.409Z,113.60
2022-08-17T16:46:50.754Z,115.85
2022-08-17T16:49:27.577Z,114.57
2022-08-17T16:52:10.848Z,111.97
2022-08-17T16:54:44.432Z,114.85
2022-08-17T16:57:17.448Z,114.35
2022-08-17T16:59:51.428Z,110.90
2022-08-17T17:02:36.263Z,112.13
2022-08-17T17:05:57.842Z,111.40
2022-08-17T17:08:57.387Z,111.90
2022-08-17T17:11:33.656Z,112.67
2022-08-17T17:14:10.282Z,112.53
2022-08-17T17:16:49.767Z,112.47
2022-08-17T17:19:46.426Z,113.77
2022-08-17T17:22:37.519Z,109.73
2022-08-17T17:25:09.190Z,113.40
2022-08-17T17:28:00.693Z,111.50
2022-08-17T17:30:40.931Z,108.27
2022-08-17T17:33:22.466Z,115.37
2022-08-17T17:36:00.331Z,111.83
2022-08-17T17:38:42.452Z,111.30
2022-08-17T17:41:26.512Z,105.93
2022-08-17T17:46:40.211Z,107.40
2022-08-17T17:49:14.281Z,107.23
2022-08-17T17:52:12.333Z,109.53
2022-08-17T17:55:05.936Z,107.13
2022-08-17T17:57:40.440Z,112.30
2022-08-17T18:00:20.683Z,111.60
2022-08-17T18:03:06.862Z,112.10
2022-08-17T18:06:01.173Z,110.87
2022-08-17T18:11:24.688Z,111.87
2022-08-17T18:13:56.591Z,107.33
2022-08-17T18:16:32.177Z,106.33
2022-08-17T18:19:04.177Z,107.17
2022-08-17T18:21:46.358Z,110.00
2022-08-17T18:24:32.834Z,111.70
2022-08-17T18:27:25.935Z,110.33
2022-08-17T18:30:25.130Z,110.90
2022-08-17T18:33:23.143Z,109.73
2022-08-17T18:35:58.845Z,108.33
2022-08-17T18:38:37.898Z,108.17
2022-08-17T18:41:27.113Z,106.00
2022-08-17T18:44:05.370Z,106.27
2022-08-17T18:46:37.769Z,112.40
2022-08-17T18:49:28.917Z,109.47
2022-08-17T18:52:22.966Z,112.00
2022-08-17T18:55:25.250Z,110.30
2022-08-17T18:58:12.905Z,106.07
2022-08-17T19:00:46.671Z,108.47
2022-08-17T19:03:25.024Z,109.15
2022-08-17T19:06:17.483Z,105.93
2022-08-17T19:08:53.260Z,107.97
2022-08-17T19:11:35.623Z,103.83
2022-08-17T19:14:12.014Z,108.17
2022-08-17T19:16:55.683Z,102.97
2022-08-17T19:19:38.445Z,102.13
2022-08-17T19:22:28.856Z,105.70
2022-08-17T19:25:15.203Z,104.23
2022-08-17T19:28:02.921Z,98.70
2022-08-17T19:30:35.898Z,105.90
2022-08-17T19:33:10.315Z,103.47
2022-08-17T19:36:01.967Z,105.23
2022-08-17T19:38:54.514Z,102.33
2022-08-17T19:41:41.030Z,101.67
2022-08-17T19:44:35.425Z,104.63
2022-08-17T19:47:54.782Z,101.17
2022-08-17T19:50:41.323Z,101.50
2022-08-17T19:53:41.693Z,100.57
2022-08-17T19:56:31.769Z,102.10
2022-08-17T19:59:13.312Z,102.63
2022-08-17T20:01:53.476Z,103.50
2022-08-17T20:04:35.654Z,103.13
2022-08-17T20:07:14.339Z,102.40
2022-08-17T20:10:06.962Z,102.73
2022-08-17T20:12:42.336Z,102.50
2022-08-17T20:15:25.027Z,102.70
2022-08-17T20:18:00.184Z,106.37
2022-08-17T20:20:55.814Z,105.00
2022-08-17T20:23:41.788Z,105.33
2022-08-17T20:26:37.018Z,101.67
2022-08-17T20:29:37.601Z,101.30
2022-08-17T20:32:19.073Z,99.83
2022-08-17T20:35:08.141Z,100.57
2022-08-17T20:37:44.364Z,96.40
2022-08-17T20:40:21.451Z,96.40
2022-08-17T20:42:53.635Z,98.47
2022-08-17T20:45:26.202Z,96.17
2022-08-17T20:48:24.001Z,98.07
2022-08-17T20:51:00.870Z,96.07
2022-08-17T20:53:51.873Z,95.47
2022-08-17T20:56:43.077Z,95.33
2022-08-17T20:59:20.561Z,92.77
2022-08-17T21:02:19.507Z,95.20
2022-08-17T21:04:54.421Z,96.17
2022-08-17T21:07:33.120Z,92.60
2022-08-17T21:10:35.571Z,97.37
2022-08-17T21:13:13.991Z,95.77
2022-08-17T21:16:09.098Z,85.37
2022-08-17T21:19:05.757Z,89.53
2022-08-17T21:21:58.556Z,86.93
2022-08-17T21:24:39.821Z,86.50
2022-08-17T21:27:52.892Z,89.33
2022-08-17T21:30:30.057Z,91.43
2022-08-17T21:33:35.056Z,88.10
2022-08-17T21:36:12.420Z,90.30
2022-08-17T21:38:57.388Z,91.03
2022-08-17T21:41:44.281Z,90.33
2022-08-17T21:44:32.208Z,87.80
2022-08-17T21:47:25.949Z,84.63
2022-08-17T21:50:16.166Z,90.67
2022-08-17T21:52:49.629Z,91.10
2022-08-17T21:55:30.415Z,83.65
2022-08-17T21:58:14.603Z,85.17
2022-08-17T22:00:46.706Z,90.43
2022-08-17T22:03:24.636Z,91.50
2022-08-17T22:05:58.969Z,89.20
2022-08-17T22:08:30.618Z,91.10
2022-08-17T22:11:02.528Z,89.60
2022-08-17T22:13:38.558Z,87.03
2022-08-17T22:16:28.301Z,85.17
2022-08-17T22:19:00.922Z,86.90
2022-08-17T22:21:32.564Z,88.90
2022-08-17T22:24:21.519Z,89.23
2022-08-17T22:27:12.921Z,90.20
2022-08-17T22:29:59.631Z,83.17
2022-08-17T22:32:41.649Z,86.60
2022-08-17T22:35:28.447Z,85.53
2022-08-17T22:38:19.499Z,87.17
2022-08-17T22:40:55.771Z,86.90
2022-08-17T22:43:28.671Z,85.63
2022-08-17T22:46:00.662Z,87.63
2022-08-17T22:48:32.550Z,244.17
2022-08-17T22:51:12.689Z,247.87
2022-08-17T22:54:11.230Z,243.03
2022-08-17T22:57:18.690Z,83.70
2022-08-17T22:59:55.023Z,84.53
2022-08-17T23:02:30.739Z,82.50
2022-08-17T23:05:15.707Z,84.83
2022-08-17T23:07:51.339Z,82.53
2022-08-17T23:10:23.033Z,80.47
2022-08-17T23:12:59.793Z,81.57
2022-08-17T23:15:33.775Z,86.23
2022-08-17T23:18:05.973Z,83.50
2022-08-17T23:26:11.608Z,82.77
2022-08-17T23:28:43.901Z,83.60
2022-08-17T23:31:19.583Z,84.43
2022-08-17T23:33:59.588Z,80.72
2022-08-17T23:36:31.641Z,79.40
2022-08-17T23:39:04.741Z,81.57
2022-08-17T23:41:39.961Z,81.75
2022-08-17T23:44:13.382Z,84.83
2022-08-17T23:46:45.076Z,82.85
2022-08-17T23:49:17.015Z,83.60
2022-08-17T23:51:49.216Z,83.50
2022-08-17T23:54:30.006Z,78.80
2022-08-17T23:57:04.407Z,89.47
2022-08-17T23:59:37.249Z,84.37
